sensor_id;sensor_type;location;lat;lon;timestamp;P1;durP1;ratioP1;P2;durP2;ratioP2
10565;SDS011;5331;48.148;16.326;2023-05-07T00:00:44;2.83;;;2.35;;
10565;SDS011;5331;48.148;16.326;2023-05-07T00:03:11;2.50;;;2.30;;
10565;SDS011;5331;48.148;16.326;2023-05-07T00:05:38;2.63;;;2.45;;
10565;SDS011;5331;48.148;16.326;2023-05-07T00:08:06;2.30;;;2.20;;
10565;SDS011;5331;48.148;16.326;2023-05-07T00:10:33;3.00;;;2.80;;
10565;SDS011;5331;48.148;16.326;2023-05-07T00:13:00;2.78;;;2.58;;
10565;SDS011;5331;48.148;16.326;2023-05-07T00:15:28;2.80;;;2.60;;
10565;SDS011;5331;48.148;16.326;2023-05-07T00:17:55;2.42;;;2.33;;
10565;SDS011;5331;48.148;16.326;2023-05-07T00:20:23;2.70;;;2.50;;
10565;SDS011;5331;48.148;16.326;2023-05-07T00:22:50;2.90;;;2.70;;
10565;SDS011;5331;48.148;16.326;2023-05-07T00:25:17;2.70;;;2.50;;
10565;SDS011;5331;48.148;16.326;2023-05-07T00:27:44;2.80;;;2.60;;
10565;SDS011;5331;48.148;16.326;2023-05-07T00:30:11;2.58;;;2.38;;
10565;SDS011;5331;48.148;16.326;2023-05-07T00:32:40;2.50;;;2.40;;
10565;SDS011;5331;48.148;16.326;2023-05-07T00:35:07;2.50;;;2.40;;
10565;SDS011;5331;48.148;16.326;2023-05-07T00:37:35;2.50;;;2.40;;
10565;SDS011;5331;48.148;16.326;2023-05-07T00:40:02;3.63;;;2.50;;
10565;SDS011;5331;48.148;16.326;2023-05-07T00:42:32;3.20;;;2.38;;
10565;SDS011;5331;48.148;16.326;2023-05-07T00:44:59;2.70;;;2.50;;
10565;SDS011;5331;48.148;16.326;2023-05-07T00:47:26;2.50;;;2.40;;
10565;SDS011;5331;48.148;16.326;2023-05-07T00:49:54;2.45;;;2.35;;
10565;SDS011;5331;48.148;16.326;2023-05-07T00:52:21;2.58;;;2.40;;
10565;SDS011;5331;48.148;16.326;2023-05-07T00:54:49;2.85;;;2.47;;
10565;SDS011;5331;48.148;16.326;2023-05-07T00:57:16;2.88;;;2.60;;
10565;SDS011;5331;48.148;16.326;2023-05-07T00:59:43;2.63;;;2.42;;
10565;SDS011;5331;48.148;16.326;2023-05-07T01:02:10;2.97;;;2.78;;
10565;SDS011;5331;48.148;16.326;2023-05-07T01:04:37;2.88;;;2.67;;
10565;SDS011;5331;48.148;16.326;2023-05-07T01:07:05;2.90;;;2.58;;
10565;SDS011;5331;48.148;16.326;2023-05-07T01:09:32;2.80;;;2.60;;
10565;SDS011;5331;48.148;16.326;2023-05-07T01:12:01;2.97;;;2.42;;
10565;SDS011;5331;48.148;16.326;2023-05-07T01:14:29;2.10;;;2.00;;
10565;SDS011;5331;48.148;16.326;2023-05-07T01:16:58;2.70;;;2.30;;
10565;SDS011;5331;48.148;16.326;2023-05-07T01:19:25;2.22;;;2.05;;
10565;SDS011;5331;48.148;16.326;2023-05-07T01:21:52;2.70;;;2.50;;
10565;SDS011;5331;48.148;16.326;2023-05-07T01:24:28;2.30;;;2.20;;
10565;SDS011;5331;48.148;16.326;2023-05-07T01:26:56;2.55;;;2.45;;
10565;SDS011;5331;48.148;16.326;2023-05-07T01:29:23;2.67;;;2.47;;
10565;SDS011;5331;48.148;16.326;2023-05-07T01:31:49;2.60;;;2.40;;
10565;SDS011;5331;48.148;16.326;2023-05-07T01:34:17;2.30;;;2.20;;
10565;SDS011;5331;48.148;16.326;2023-05-07T01:36:46;2.22;;;2.13;;
10565;SDS011;5331;48.148;16.326;2023-05-07T01:39:13;2.45;;;2.35;;
10565;SDS011;5331;48.148;16.326;2023-05-07T01:41:43;2.70;;;2.50;;
10565;SDS011;5331;48.148;16.326;2023-05-07T01:44:11;2.38;;;2.25;;
10565;SDS011;5331;48.148;16.326;2023-05-07T01:46:39;2.83;;;2.63;;
10565;SDS011;5331;48.148;16.326;2023-05-07T01:49:06;2.53;;;2.42;;
10565;SDS011;5331;48.148;16.326;2023-05-07T01:51:33;2.55;;;2.40;;
10565;SDS011;5331;48.148;16.326;2023-05-07T01:54:00;2.60;;;2.40;;
10565;SDS011;5331;48.148;16.326;2023-05-07T01:56:27;2.33;;;2.22;;
10565;SDS011;5331;48.148;16.326;2023-05-07T01:58:55;2.80;;;2.60;;
10565;SDS011;5331;48.148;16.326;2023-05-07T02:01:22;2.78;;;2.58;;
10565;SDS011;5331;48.148;16.326;2023-05-07T02:03:49;3.97;;;2.80;;
10565;SDS011;5331;48.148;16.326;2023-05-07T02:06:16;3.10;;;2.65;;
10565;SDS011;5331;48.148;16.326;2023-05-07T02:08:43;3.03;;;2.58;;
10565;SDS011;5331;48.148;16.326;2023-05-07T02:11:10;2.53;;;2.42;;
10565;SDS011;5331;48.148;16.326;2023-05-07T02:13:36;3.22;;;2.92;;
10565;SDS011;5331;48.148;16.326;2023-05-07T02:16:05;2.92;;;2.75;;
10565;SDS011;5331;48.148;16.326;2023-05-07T02:18:32;2.60;;;2.50;;
10565;SDS011;5331;48.148;16.326;2023-05-07T02:20:59;2.80;;;2.60;;
10565;SDS011;5331;48.148;16.326;2023-05-07T02:23:26;2.90;;;2.70;;
10565;SDS011;5331;48.148;16.326;2023-05-07T02:25:52;3.15;;;2.83;;
10565;SDS011;5331;48.148;16.326;2023-05-07T02:28:19;3.05;;;2.85;;
10565;SDS011;5331;48.148;16.326;2023-05-07T02:30:46;3.67;;;2.95;;
10565;SDS011;5331;48.148;16.326;2023-05-07T02:33:14;3.40;;;3.10;;
10565;SDS011;5331;48.148;16.326;2023-05-07T02:35:41;3.30;;;3.10;;
10565;SDS011;5331;48.148;16.326;2023-05-07T02:38:08;3.30;;;3.00;;
10565;SDS011;5331;48.148;16.326;2023-05-07T02:40:35;3.92;;;3.50;;
10565;SDS011;5331;48.148;16.326;2023-05-07T02:43:03;3.90;;;3.60;;
10565;SDS011;5331;48.148;16.326;2023-05-07T02:45:30;3.50;;;3.20;;
10565;SDS011;5331;48.148;16.326;2023-05-07T02:47:57;3.00;;;2.80;;
10565;SDS011;5331;48.148;16.326;2023-05-07T02:50:26;3.25;;;3.05;;
10565;SDS011;5331;48.148;16.326;2023-05-07T02:52:53;3.10;;;2.90;;
10565;SDS011;5331;48.148;16.326;2023-05-07T02:55:20;3.10;;;2.90;;
10565;SDS011;5331;48.148;16.326;2023-05-07T02:57:47;3.95;;;2.97;;
10565;SDS011;5331;48.148;16.326;2023-05-07T03:00:14;2.97;;;2.78;;
10565;SDS011;5331;48.148;16.326;2023-05-07T03:02:42;2.75;;;2.55;;
10565;SDS011;5331;48.148;16.326;2023-05-07T03:05:09;3.38;;;3.17;;
10565;SDS011;5331;48.148;16.326;2023-05-07T03:07:38;3.35;;;3.05;;
10565;SDS011;5331;48.148;16.326;2023-05-07T03:10:06;3.72;;;3.38;;
10565;SDS011;5331;48.148;16.326;2023-05-07T03:12:33;3.53;;;3.05;;
10565;SDS011;5331;48.148;16.326;2023-05-07T03:15:00;4.13;;;3.40;;
10565;SDS011;5331;48.148;16.326;2023-05-07T03:17:27;3.47;;;3.25;;
10565;SDS011;5331;48.148;16.326;2023-05-07T03:19:54;3.88;;;3.58;;
10565;SDS011;5331;48.148;16.326;2023-05-07T03:22:21;3.90;;;3.60;;
10565;SDS011;5331;48.148;16.326;2023-05-07T03:24:49;4.40;;;3.70;;
10565;SDS011;5331;48.148;16.326;2023-05-07T03:27:16;4.10;;;3.70;;
10565;SDS011;5331;48.148;16.326;2023-05-07T03:29:43;5.82;;;4.10;;
10565;SDS011;5331;48.148;16.326;2023-05-07T03:32:10;4.65;;;4.25;;
10565;SDS011;5331;48.148;16.326;2023-05-07T03:34:36;5.03;;;4.63;;
10565;SDS011;5331;48.148;16.326;2023-05-07T03:37:03;4.60;;;4.20;;
10565;SDS011;5331;48.148;16.326;2023-05-07T03:39:30;4.47;;;4.18;;
10565;SDS011;5331;48.148;16.326;2023-05-07T03:41:59;5.13;;;4.65;;
10565;SDS011;5331;48.148;16.326;2023-05-07T03:44:26;5.15;;;4.72;;
10565;SDS011;5331;48.148;16.326;2023-05-07T03:46:53;4.78;;;4.45;;
10565;SDS011;5331;48.148;16.326;2023-05-07T03:49:20;5.47;;;4.97;;
10565;SDS011;5331;48.148;16.326;2023-05-07T03:51:47;5.55;;;5.05;;
10565;SDS011;5331;48.148;16.326;2023-05-07T03:54:14;5.60;;;5.10;;
10565;SDS011;5331;48.148;16.326;2023-05-07T03:56:40;6.53;;;5.80;;
10565;SDS011;5331;48.148;16.326;2023-05-07T03:59:09;6.55;;;5.93;;
10565;SDS011;5331;48.148;16.326;2023-05-07T04:01:35;7.10;;;6.40;;
10565;SDS011;5331;48.148;16.326;2023-05-07T04:04:02;6.68;;;6.00;;
10565;SDS011;5331;48.148;16.326;2023-05-07T04:06:29;8.10;;;6.97;;
10565;SDS011;5331;48.148;16.326;2023-05-07T04:08:56;7.82;;;7.03;;
10565;SDS011;5331;48.148;16.326;2023-05-07T04:11:23;7.18;;;6.47;;
10565;SDS011;5331;48.148;16.326;2023-05-07T04:13:50;7.40;;;6.70;;
10565;SDS011;5331;48.148;16.326;2023-05-07T04:16:18;8.07;;;7.20;;
10565;SDS011;5331;48.148;16.326;2023-05-07T04:18:45;8.10;;;7.30;;
10565;SDS011;5331;48.148;16.326;2023-05-07T04:21:15;10.18;;;8.63;;
10565;SDS011;5331;48.148;16.326;2023-05-07T04:23:42;9.05;;;8.07;;
10565;SDS011;5331;48.148;16.326;2023-05-07T04:26:09;9.20;;;8.20;;
10565;SDS011;5331;48.148;16.326;2023-05-07T04:28:36;10.60;;;9.50;;
10565;SDS011;5331;48.148;16.326;2023-05-07T04:31:04;10.43;;;9.32;;
10565;SDS011;5331;48.148;16.326;2023-05-07T04:33:32;12.05;;;10.57;;
10565;SDS011;5331;48.148;16.326;2023-05-07T04:36:00;12.60;;;11.23;;
10565;SDS011;5331;48.148;16.326;2023-05-07T04:38:28;13.00;;;10.93;;
10565;SDS011;5331;48.148;16.326;2023-05-07T04:40:55;12.23;;;10.93;;
10565;SDS011;5331;48.148;16.326;2023-05-07T04:43:22;12.15;;;10.52;;
10565;SDS011;5331;48.148;16.326;2023-05-07T04:45:50;12.07;;;10.18;;
10565;SDS011;5331;48.148;16.326;2023-05-07T04:48:17;13.25;;;10.85;;
10565;SDS011;5331;48.148;16.326;2023-05-07T04:50:46;11.48;;;9.65;;
10565;SDS011;5331;48.148;16.326;2023-05-07T04:53:14;12.18;;;9.90;;
10565;SDS011;5331;48.148;16.326;2023-05-07T04:55:41;11.50;;;9.68;;
10565;SDS011;5331;48.148;16.326;2023-05-07T04:58:08;11.55;;;10.38;;
10565;SDS011;5331;48.148;16.326;2023-05-07T05:00:35;13.85;;;11.80;;
10565;SDS011;5331;48.148;16.326;2023-05-07T05:03:02;12.05;;;10.45;;
10565;SDS011;5331;48.148;16.326;2023-05-07T05:05:30;12.70;;;11.27;;
10565;SDS011;5331;48.148;16.326;2023-05-07T05:07:58;14.43;;;11.70;;
10565;SDS011;5331;48.148;16.326;2023-05-07T05:10:25;14.25;;;12.70;;
10565;SDS011;5331;48.148;16.326;2023-05-07T05:12:52;15.70;;;12.52;;
10565;SDS011;5331;48.148;16.326;2023-05-07T05:15:18;14.95;;;13.35;;
10565;SDS011;5331;48.148;16.326;2023-05-07T05:17:45;16.52;;;12.95;;
10565;SDS011;5331;48.148;16.326;2023-05-07T05:20:12;14.93;;;12.88;;
10565;SDS011;5331;48.148;16.326;2023-05-07T05:22:39;17.40;;;14.00;;
10565;SDS011;5331;48.148;16.326;2023-05-07T05:25:08;18.02;;;14.60;;
10565;SDS011;5331;48.148;16.326;2023-05-07T05:27:35;15.38;;;13.73;;
10565;SDS011;5331;48.148;16.326;2023-05-07T05:30:02;16.45;;;13.95;;
10565;SDS011;5331;48.148;16.326;2023-05-07T05:32:30;18.25;;;14.25;;
10565;SDS011;5331;48.148;16.326;2023-05-07T05:34:57;17.75;;;15.25;;
10565;SDS011;5331;48.148;16.326;2023-05-07T05:37:24;17.80;;;14.52;;
10565;SDS011;5331;48.148;16.326;2023-05-07T05:39:51;18.80;;;15.30;;
10565;SDS011;5331;48.148;16.326;2023-05-07T05:42:21;18.27;;;15.32;;
10565;SDS011;5331;48.148;16.326;2023-05-07T05:44:48;16.95;;;14.70;;
10565;SDS011;5331;48.148;16.326;2023-05-07T05:47:15;19.77;;;15.48;;
10565;SDS011;5331;48.148;16.326;2023-05-07T05:49:41;22.10;;;16.42;;
10565;SDS011;5331;48.148;16.326;2023-05-07T05:52:09;18.33;;;16.08;;
10565;SDS011;5331;48.148;16.326;2023-05-07T05:54:37;19.20;;;16.20;;
10565;SDS011;5331;48.148;16.326;2023-05-07T05:57:04;20.10;;;16.98;;
10565;SDS011;5331;48.148;16.326;2023-05-07T05:59:32;21.00;;;17.25;;
10565;SDS011;5331;48.148;16.326;2023-05-07T06:01:59;21.48;;;17.05;;
10565;SDS011;5331;48.148;16.326;2023-05-07T06:04:27;18.58;;;16.52;;
10565;SDS011;5331;48.148;16.326;2023-05-07T06:06:53;20.20;;;16.60;;
10565;SDS011;5331;48.148;16.326;2023-05-07T06:09:21;19.02;;;16.13;;
10565;SDS011;5331;48.148;16.326;2023-05-07T06:11:48;22.55;;;17.67;;
10565;SDS011;5331;48.148;16.326;2023-05-07T06:14:15;22.85;;;18.35;;
10565;SDS011;5331;48.148;16.326;2023-05-07T06:16:43;22.50;;;18.23;;
10565;SDS011;5331;48.148;16.326;2023-05-07T06:19:10;21.25;;;18.17;;
10565;SDS011;5331;48.148;16.326;2023-05-07T06:21:38;21.80;;;18.92;;
10565;SDS011;5331;48.148;16.326;2023-05-07T06:24:05;20.65;;;17.23;;
10565;SDS011;5331;48.148;16.326;2023-05-07T06:26:32;20.83;;;17.48;;
10565;SDS011;5331;48.148;16.326;2023-05-07T06:28:59;23.80;;;19.90;;
10565;SDS011;5331;48.148;16.326;2023-05-07T06:31:29;24.13;;;19.73;;
10565;SDS011;5331;48.148;16.326;2023-05-07T06:33:58;26.70;;;22.23;;
10565;SDS011;5331;48.148;16.326;2023-05-07T06:36:27;26.77;;;22.00;;
10565;SDS011;5331;48.148;16.326;2023-05-07T06:38:54;24.40;;;19.83;;
10565;SDS011;5331;48.148;16.326;2023-05-07T06:41:21;22.17;;;18.77;;
10565;SDS011;5331;48.148;16.326;2023-05-07T06:43:48;21.58;;;18.88;;
10565;SDS011;5331;48.148;16.326;2023-05-07T06:46:15;24.25;;;20.55;;
10565;SDS011;5331;48.148;16.326;2023-05-07T06:48:42;26.38;;;21.83;;
10565;SDS011;5331;48.148;16.326;2023-05-07T06:51:10;23.20;;;19.90;;
10565;SDS011;5331;48.148;16.326;2023-05-07T06:53:37;22.13;;;18.63;;
10565;SDS011;5331;48.148;16.326;2023-05-07T06:56:05;22.80;;;19.88;;
10565;SDS011;5331;48.148;16.326;2023-05-07T06:58:32;20.92;;;18.00;;
10565;SDS011;5331;48.148;16.326;2023-05-07T07:00:59;21.58;;;17.60;;
10565;SDS011;5331;48.148;16.326;2023-05-07T07:03:26;23.52;;;17.85;;
10565;SDS011;5331;48.148;16.326;2023-05-07T07:05:53;22.33;;;17.92;;
10565;SDS011;5331;48.148;16.326;2023-05-07T07:08:21;21.73;;;17.90;;
10565;SDS011;5331;48.148;16.326;2023-05-07T07:10:48;21.38;;;17.17;;
10565;SDS011;5331;48.148;16.326;2023-05-07T07:13:16;17.15;;;14.98;;
10565;SDS011;5331;48.148;16.326;2023-05-07T07:15:45;17.58;;;15.68;;
10565;SDS011;5331;48.148;16.326;2023-05-07T07:18:12;17.45;;;15.52;;
10565;SDS011;5331;48.148;16.326;2023-05-07T07:20:39;21.27;;;15.93;;
10565;SDS011;5331;48.148;16.326;2023-05-07T07:23:06;17.35;;;15.57;;
10565;SDS011;5331;48.148;16.326;2023-05-07T07:25:34;17.80;;;15.70;;
10565;SDS011;5331;48.148;16.326;2023-05-07T07:28:01;16.65;;;14.65;;
10565;SDS011;5331;48.148;16.326;2023-05-07T07:30:28;17.25;;;15.38;;
10565;SDS011;5331;48.148;16.326;2023-05-07T07:32:55;19.05;;;16.15;;
10565;SDS011;5331;48.148;16.326;2023-05-07T07:35:27;16.83;;;15.02;;
10565;SDS011;5331;48.148;16.326;2023-05-07T07:37:54;17.55;;;15.63;;
10565;SDS011;5331;48.148;16.326;2023-05-07T07:40:20;18.60;;;16.55;;
10565;SDS011;5331;48.148;16.326;2023-05-07T07:42:49;18.67;;;16.00;;
10565;SDS011;5331;48.148;16.326;2023-05-07T07:45:16;16.25;;;14.57;;
10565;SDS011;5331;48.148;16.326;2023-05-07T07:47:43;16.65;;;14.95;;
10565;SDS011;5331;48.148;16.326;2023-05-07T07:50:10;18.48;;;14.30;;
10565;SDS011;5331;48.148;16.326;2023-05-07T07:52:37;15.15;;;13.48;;
10565;SDS011;5331;48.148;16.326;2023-05-07T07:55:04;15.52;;;13.85;;
10565;SDS011;5331;48.148;16.326;2023-05-07T07:57:32;15.48;;;13.88;;
10565;SDS011;5331;48.148;16.326;2023-05-07T08:00:00;17.02;;;14.75;;
10565;SDS011;5331;48.148;16.326;2023-05-07T08:02:27;15.38;;;13.63;;
10565;SDS011;5331;48.148;16.326;2023-05-07T08:04:54;17.23;;;14.32;;
10565;SDS011;5331;48.148;16.326;2023-05-07T08:07:21;14.77;;;13.18;;
10565;SDS011;5331;48.148;16.326;2023-05-07T08:09:48;15.55;;;12.80;;
10565;SDS011;5331;48.148;16.326;2023-05-07T08:12:15;13.93;;;12.50;;
10565;SDS011;5331;48.148;16.326;2023-05-07T08:14:42;13.50;;;12.10;;
10565;SDS011;5331;48.148;16.326;2023-05-07T08:17:10;14.32;;;12.82;;
10565;SDS011;5331;48.148;16.326;2023-05-07T08:19:38;15.48;;;12.93;;
10565;SDS011;5331;48.148;16.326;2023-05-07T08:22:04;14.90;;;13.27;;
10565;SDS011;5331;48.148;16.326;2023-05-07T08:24:31;15.50;;;13.02;;
10565;SDS011;5331;48.148;16.326;2023-05-07T08:26:58;14.63;;;13.13;;
10565;SDS011;5331;48.148;16.326;2023-05-07T08:29:25;14.23;;;12.45;;
10565;SDS011;5331;48.148;16.326;2023-05-07T08:31:52;14.85;;;12.38;;
10565;SDS011;5331;48.148;16.326;2023-05-07T08:34:20;13.73;;;12.30;;
10565;SDS011;5331;48.148;16.326;2023-05-07T08:36:49;13.70;;;12.30;;
10565;SDS011;5331;48.148;16.326;2023-05-07T08:39:16;13.77;;;12.40;;
10565;SDS011;5331;48.148;16.326;2023-05-07T08:41:43;14.30;;;12.80;;
10565;SDS011;5331;48.148;16.326;2023-05-07T08:44:12;15.48;;;13.77;;
10565;SDS011;5331;48.148;16.326;2023-05-07T08:46:40;14.98;;;13.38;;
10565;SDS011;5331;48.148;16.326;2023-05-07T08:49:08;13.60;;;12.20;;
10565;SDS011;5331;48.148;16.326;2023-05-07T08:51:36;14.80;;;13.25;;
10565;SDS011;5331;48.148;16.326;2023-05-07T08:54:04;13.77;;;12.38;;
10565;SDS011;5331;48.148;16.326;2023-05-07T08:56:32;14.20;;;12.70;;
10565;SDS011;5331;48.148;16.326;2023-05-07T08:58:59;14.23;;;12.82;;
10565;SDS011;5331;48.148;16.326;2023-05-07T09:01:25;14.38;;;12.98;;
10565;SDS011;5331;48.148;16.326;2023-05-07T09:03:52;12.82;;;11.52;;
10565;SDS011;5331;48.148;16.326;2023-05-07T09:06:20;15.68;;;13.18;;
10565;SDS011;5331;48.148;16.326;2023-05-07T09:08:51;13.43;;;12.00;;
10565;SDS011;5331;48.148;16.326;2023-05-07T09:11:19;13.18;;;11.77;;
10565;SDS011;5331;48.148;16.326;2023-05-07T09:13:47;13.15;;;11.68;;
10565;SDS011;5331;48.148;16.326;2023-05-07T09:16:15;13.77;;;11.88;;
10565;SDS011;5331;48.148;16.326;2023-05-07T09:18:42;13.43;;;11.52;;
10565;SDS011;5331;48.148;16.326;2023-05-07T09:21:10;12.52;;;11.30;;
10565;SDS011;5331;48.148;16.326;2023-05-07T09:23:37;12.55;;;11.23;;
10565;SDS011;5331;48.148;16.326;2023-05-07T09:26:06;12.00;;;10.43;;
10565;SDS011;5331;48.148;16.326;2023-05-07T09:28:37;12.13;;;10.93;;
10565;SDS011;5331;48.148;16.326;2023-05-07T09:31:06;12.30;;;11.05;;
10565;SDS011;5331;48.148;16.326;2023-05-07T09:33:33;11.40;;;10.25;;
10565;SDS011;5331;48.148;16.326;2023-05-07T09:36:01;12.10;;;10.93;;
10565;SDS011;5331;48.148;16.326;2023-05-07T09:38:30;12.05;;;10.80;;
10565;SDS011;5331;48.148;16.326;2023-05-07T09:41:04;12.77;;;11.48;;
10565;SDS011;5331;48.148;16.326;2023-05-07T09:43:34;14.05;;;12.65;;
10565;SDS011;5331;48.148;16.326;2023-05-07T09:46:06;12.68;;;11.35;;
10565;SDS011;5331;48.148;16.326;2023-05-07T09:48:35;13.35;;;12.02;;
10565;SDS011;5331;48.148;16.326;2023-05-07T09:51:06;14.23;;;11.90;;
10565;SDS011;5331;48.148;16.326;2023-05-07T09:53:39;13.25;;;11.88;;
10565;SDS011;5331;48.148;16.326;2023-05-07T09:56:07;12.93;;;11.63;;
10565;SDS011;5331;48.148;16.326;2023-05-07T09:58:37;11.40;;;10.30;;
10565;SDS011;5331;48.148;16.326;2023-05-07T10:01:10;12.13;;;10.82;;
10565;SDS011;5331;48.148;16.326;2023-05-07T10:03:39;13.65;;;12.27;;
10565;SDS011;5331;48.148;16.326;2023-05-07T10:06:08;12.38;;;11.18;;
10565;SDS011;5331;48.148;16.326;2023-05-07T10:08:36;10.95;;;9.85;;
10565;SDS011;5331;48.148;16.326;2023-05-07T10:11:04;10.32;;;9.32;;
10565;SDS011;5331;48.148;16.326;2023-05-07T10:13:31;10.57;;;9.43;;
10565;SDS011;5331;48.148;16.326;2023-05-07T10:16:02;11.52;;;9.85;;
10565;SDS011;5331;48.148;16.326;2023-05-07T10:18:30;10.82;;;9.73;;
10565;SDS011;5331;48.148;16.326;2023-05-07T10:21:00;10.23;;;9.23;;
10565;SDS011;5331;48.148;16.326;2023-05-07T10:23:30;11.10;;;9.48;;
10565;SDS011;5331;48.148;16.326;2023-05-07T10:25:59;10.27;;;9.35;;
10565;SDS011;5331;48.148;16.326;2023-05-07T10:28:30;11.82;;;9.70;;
10565;SDS011;5331;48.148;16.326;2023-05-07T10:31:05;11.27;;;10.07;;
10565;SDS011;5331;48.148;16.326;2023-05-07T10:33:41;9.60;;;8.57;;
10565;SDS011;5331;48.148;16.326;2023-05-07T10:36:11;8.75;;;7.95;;
10565;SDS011;5331;48.148;16.326;2023-05-07T10:38:38;9.63;;;8.68;;
10565;SDS011;5331;48.148;16.326;2023-05-07T10:41:06;10.93;;;9.93;;
10565;SDS011;5331;48.148;16.326;2023-05-07T10:43:42;10.88;;;9.77;;
10565;SDS011;5331;48.148;16.326;2023-05-07T10:46:14;9.85;;;8.95;;
10565;SDS011;5331;48.148;16.326;2023-05-07T10:51:36;9.88;;;8.82;;
10565;SDS011;5331;48.148;16.326;2023-05-07T10:54:22;11.32;;;10.23;;
10565;SDS011;5331;48.148;16.326;2023-05-07T10:56:52;11.20;;;9.95;;
10565;SDS011;5331;48.148;16.326;2023-05-07T10:59:32;11.30;;;10.10;;
10565;SDS011;5331;48.148;16.326;2023-05-07T11:02:08;10.32;;;9.32;;
10565;SDS011;5331;48.148;16.326;2023-05-07T11:04:36;11.18;;;10.02;;
10565;SDS011;5331;48.148;16.326;2023-05-07T11:09:58;11.00;;;9.90;;
10565;SDS011;5331;48.148;16.326;2023-05-07T11:12:49;11.25;;;9.60;;
10565;SDS011;5331;48.148;16.326;2023-05-07T11:15:36;10.40;;;9.30;;
10565;SDS011;5331;48.148;16.326;2023-05-07T11:18:12;11.52;;;10.32;;
10565;SDS011;5331;48.148;16.326;2023-05-07T11:20:53;10.45;;;9.45;;
10565;SDS011;5331;48.148;16.326;2023-05-07T11:26:23;11.85;;;10.15;;
10565;SDS011;5331;48.148;16.326;2023-05-07T11:28:51;10.95;;;9.85;;
10565;SDS011;5331;48.148;16.326;2023-05-07T11:31:23;9.73;;;8.70;;
10565;SDS011;5331;48.148;16.326;2023-05-07T11:33:54;11.30;;;10.18;;
10565;SDS011;5331;48.148;16.326;2023-05-07T11:36:22;10.27;;;9.25;;
10565;SDS011;5331;48.148;16.326;2023-05-07T11:38:50;10.10;;;9.10;;
10565;SDS011;5331;48.148;16.326;2023-05-07T11:41:17;10.10;;;9.05;;
10565;SDS011;5331;48.148;16.326;2023-05-07T11:43:53;8.93;;;8.13;;
10565;SDS011;5331;48.148;16.326;2023-05-07T11:46:21;10.18;;;9.18;;
10565;SDS011;5331;48.148;16.326;2023-05-07T11:48:48;9.43;;;8.50;;
10565;SDS011;5331;48.148;16.326;2023-05-07T11:51:20;10.30;;;9.27;;
10565;SDS011;5331;48.148;16.326;2023-05-07T11:53:48;10.07;;;9.07;;
10565;SDS011;5331;48.148;16.326;2023-05-07T11:56:15;10.00;;;9.00;;
10565;SDS011;5331;48.148;16.326;2023-05-07T11:58:44;9.80;;;8.80;;
10565;SDS011;5331;48.148;16.326;2023-05-07T12:01:12;9.43;;;8.55;;
10565;SDS011;5331;48.148;16.326;2023-05-07T12:03:41;8.82;;;8.00;;
10565;SDS011;5331;48.148;16.326;2023-05-07T12:06:09;9.95;;;8.98;;
10565;SDS011;5331;48.148;16.326;2023-05-07T12:08:42;8.80;;;8.00;;
10565;SDS011;5331;48.148;16.326;2023-05-07T12:11:13;9.23;;;8.32;;
10565;SDS011;5331;48.148;16.326;2023-05-07T12:13:43;9.07;;;8.18;;
10565;SDS011;5331;48.148;16.326;2023-05-07T12:16:10;8.13;;;7.43;;
10565;SDS011;5331;48.148;16.326;2023-05-07T12:18:37;8.10;;;7.40;;
10565;SDS011;5331;48.148;16.326;2023-05-07T12:21:05;8.50;;;7.55;;
10565;SDS011;5331;48.148;16.326;2023-05-07T12:23:33;8.27;;;7.47;;
10565;SDS011;5331;48.148;16.326;2023-05-07T12:26:02;8.45;;;7.53;;
10565;SDS011;5331;48.148;16.326;2023-05-07T12:28:30;8.73;;;7.82;;
10565;SDS011;5331;48.148;16.326;2023-05-07T12:31:02;7.80;;;7.10;;
10565;SDS011;5331;48.148;16.326;2023-05-07T12:33:29;8.52;;;7.70;;
10565;SDS011;5331;48.148;16.326;2023-05-07T12:35:57;8.52;;;7.70;;
10565;SDS011;5331;48.148;16.326;2023-05-07T12:38:32;8.70;;;7.80;;
10565;SDS011;5331;48.148;16.326;2023-05-07T12:41:03;9.48;;;8.57;;
10565;SDS011;5331;48.148;16.326;2023-05-07T12:43:30;8.68;;;7.88;;
10565;SDS011;5331;48.148;16.326;2023-05-07T12:45:59;9.35;;;8.45;;
10565;SDS011;5331;48.148;16.326;2023-05-07T12:48:27;9.15;;;7.95;;
10565;SDS011;5331;48.148;16.326;2023-05-07T12:50:54;8.85;;;7.95;;
10565;SDS011;5331;48.148;16.326;2023-05-07T12:53:22;8.65;;;7.28;;
10565;SDS011;5331;48.148;16.326;2023-05-07T12:55:51;7.95;;;7.25;;
10565;SDS011;5331;48.148;16.326;2023-05-07T12:58:22;8.68;;;7.78;;
10565;SDS011;5331;48.148;16.326;2023-05-07T13:00:51;8.77;;;7.97;;
10565;SDS011;5331;48.148;16.326;2023-05-07T13:03:22;8.82;;;7.93;;
10565;SDS011;5331;48.148;16.326;2023-05-07T13:05:50;8.60;;;7.80;;
10565;SDS011;5331;48.148;16.326;2023-05-07T13:08:24;9.25;;;7.90;;
10565;SDS011;5331;48.148;16.326;2023-05-07T13:10:55;8.55;;;7.75;;
10565;SDS011;5331;48.148;16.326;2023-05-07T13:13:24;9.27;;;8.38;;
10565;SDS011;5331;48.148;16.326;2023-05-07T13:15:50;8.82;;;8.00;;
10565;SDS011;5331;48.148;16.326;2023-05-07T13:18:17;7.43;;;6.68;;
10565;SDS011;5331;48.148;16.326;2023-05-07T13:20:44;8.10;;;7.40;;
10565;SDS011;5331;48.148;16.326;2023-05-07T13:23:11;8.68;;;7.57;;
10565;SDS011;5331;48.148;16.326;2023-05-07T13:25:38;7.55;;;6.85;;
10565;SDS011;5331;48.148;16.326;2023-05-07T13:28:05;7.40;;;6.70;;
10565;SDS011;5331;48.148;16.326;2023-05-07T13:30:33;7.40;;;6.75;;
10565;SDS011;5331;48.148;16.326;2023-05-07T13:33:00;7.28;;;6.57;;
10565;SDS011;5331;48.148;16.326;2023-05-07T13:35:27;7.60;;;6.90;;
10565;SDS011;5331;48.148;16.326;2023-05-07T13:37:54;7.10;;;6.40;;
10565;SDS011;5331;48.148;16.326;2023-05-07T13:40:22;7.10;;;6.50;;
10565;SDS011;5331;48.148;16.326;2023-05-07T13:42:49;8.15;;;7.35;;
10565;SDS011;5331;48.148;16.326;2023-05-07T13:45:16;7.10;;;6.50;;
10565;SDS011;5331;48.148;16.326;2023-05-07T13:47:45;7.50;;;6.80;;
10565;SDS011;5331;48.148;16.326;2023-05-07T13:50:14;7.05;;;6.45;;
10565;SDS011;5331;48.148;16.326;2023-05-07T13:52:42;8.63;;;7.20;;
10565;SDS011;5331;48.148;16.326;2023-05-07T13:55:12;7.10;;;6.50;;
10565;SDS011;5331;48.148;16.326;2023-05-07T13:57:39;8.40;;;6.85;;
10565;SDS011;5331;48.148;16.326;2023-05-07T14:00:07;7.72;;;7.00;;
10565;SDS011;5331;48.148;16.326;2023-05-07T14:02:34;8.07;;;7.28;;
10565;SDS011;5331;48.148;16.326;2023-05-07T14:05:03;9.75;;;8.82;;
10565;SDS011;5331;48.148;16.326;2023-05-07T14:07:30;8.25;;;7.40;;
10565;SDS011;5331;48.148;16.326;2023-05-07T14:09:57;8.85;;;8.05;;
10565;SDS011;5331;48.148;16.326;2023-05-07T14:12:24;7.30;;;6.57;;
10565;SDS011;5331;48.148;16.326;2023-05-07T14:14:51;6.80;;;6.20;;
10565;SDS011;5331;48.148;16.326;2023-05-07T14:17:18;7.10;;;6.50;;
10565;SDS011;5331;48.148;16.326;2023-05-07T14:19:45;8.73;;;7.82;;
10565;SDS011;5331;48.148;16.326;2023-05-07T14:22:14;6.43;;;5.80;;
10565;SDS011;5331;48.148;16.326;2023-05-07T14:24:41;7.35;;;6.65;;
10565;SDS011;5331;48.148;16.326;2023-05-07T14:27:08;6.80;;;6.20;;
10565;SDS011;5331;48.148;16.326;2023-05-07T14:29:35;8.68;;;7.82;;
10565;SDS011;5331;48.148;16.326;2023-05-07T14:32:02;11.02;;;8.82;;
10565;SDS011;5331;48.148;16.326;2023-05-07T14:34:29;8.52;;;7.45;;
10565;SDS011;5331;48.148;16.326;2023-05-07T14:36:57;7.15;;;6.15;;
10565;SDS011;5331;48.148;16.326;2023-05-07T14:39:27;7.53;;;6.72;;
10565;SDS011;5331;48.148;16.326;2023-05-07T14:41:54;6.47;;;5.90;;
10565;SDS011;5331;48.148;16.326;2023-05-07T14:44:21;6.57;;;6.07;;
10565;SDS011;5331;48.148;16.326;2023-05-07T14:46:48;6.07;;;5.57;;
10565;SDS011;5331;48.148;16.326;2023-05-07T14:49:15;6.63;;;6.03;;